createdAt,value
2018-06-18T00:00:44.591Z,56.10
2018-06-18T00:03:49.018Z,55.50
2018-06-18T00:06:53.384Z,55.40
2018-06-18T00:09:57.800Z,55.30
2018-06-18T00:13:02.040Z,55.80
2018-06-18T00:16:06.390Z,55.10
2018-06-18T00:19:10.750Z,54.60
2018-06-18T00:22:17.421Z,53.60
2018-06-18T00:25:21.667Z,53.30
2018-06-18T00:28:26.002Z,52.40
2018-06-18T00:31:29.938Z,52.00
2018-06-18T00:34:34.082Z,51.20
2018-06-18T00:37:38.454Z,50.40
2018-06-18T00:40:42.759Z,51.40
2018-06-18T00:43:47.012Z,50.40
2018-06-18T00:46:52.594Z,49.60
2018-06-18T00:49:56.994Z,49.60
2018-06-18T00:53:01.243Z,49.20
2018-06-18T00:56:14.541Z,49.20
2018-06-18T00:59:18.822Z,49.20
2018-06-18T01:02:23.191Z,49.10
2018-06-18T01:05:27.477Z,49.10
2018-06-18T01:08:31.695Z,49.30
2018-06-18T01:11:36.041Z,49.40
2018-06-18T01:14:40.500Z,49.40
2018-06-18T01:17:44.755Z,49.80
2018-06-18T01:20:49.031Z,49.70
2018-06-18T01:23:56.509Z,49.70
2018-06-18T01:27:00.879Z,50.30
2018-06-18T01:30:05.067Z,50.70
2018-06-18T01:33:09.426Z,50.70
2018-06-18T01:36:13.662Z,50.80
2018-06-18T01:39:17.986Z,51.20
2018-06-18T01:42:22.308Z,50.90
2018-06-18T01:45:26.556Z,50.90
2018-06-18T01:48:30.910Z,50.90
2018-06-18T01:51:35.214Z,50.80
2018-06-18T01:54:39.522Z,50.70
2018-06-18T01:57:43.716Z,50.80
2018-06-18T02:00:48.009Z,51.00
2018-06-18T02:03:52.338Z,51.00
2018-06-18T02:06:56.933Z,51.10
2018-06-18T02:10:01.358Z,51.10
2018-06-18T02:13:05.715Z,51.10
2018-06-18T02:16:10.001Z,51.40
2018-06-18T02:19:14.369Z,51.70
2018-06-18T02:22:18.590Z,51.60
2018-06-18T02:25:22.993Z,51.50
2018-06-18T02:28:32.351Z,51.40
2018-06-18T02:31:41.842Z,51.60
2018-06-18T02:34:51.664Z,51.50
2018-06-18T02:41:04.791Z,51.40
2018-06-18T02:44:09.068Z,51.20
2018-06-18T02:47:13.356Z,51.40
2018-06-18T02:50:17.683Z,51.30
2018-06-18T02:53:21.798Z,51.20
2018-06-18T02:57:01.983Z,51.10
2018-06-18T03:00:06.236Z,51.30
2018-06-18T03:03:10.335Z,51.40
2018-06-18T03:06:14.457Z,51.10
2018-06-18T03:09:18.761Z,51.00
2018-06-18T03:12:22.913Z,51.00
2018-06-18T03:15:27.070Z,50.90
2018-06-18T03:18:36.513Z,50.80
2018-06-18T03:21:45.928Z,51.00
2018-06-18T03:24:55.180Z,51.10
2018-06-18T03:28:04.644Z,51.40
2018-06-18T03:31:08.854Z,51.00
2018-06-18T03:34:13.142Z,51.00
2018-06-18T03:37:19.118Z,51.00
2018-06-18T03:40:23.559Z,50.60
2018-06-18T03:43:27.599Z,50.60
2018-06-18T03:46:31.845Z,50.70
2018-06-18T03:49:36.289Z,50.50
2018-06-18T03:52:40.566Z,50.40
2018-06-18T03:55:48.546Z,50.30
2018-06-18T03:58:52.806Z,50.40
2018-06-18T04:02:13.205Z,50.20
2018-06-18T04:05:22.833Z,50.00
2018-06-18T04:08:27.175Z,50.10
2018-06-18T04:11:36.598Z,50.10
2018-06-18T04:14:40.842Z,50.00
2018-06-18T04:17:45.138Z,50.10
2018-06-18T04:20:50.336Z,50.00
2018-06-18T04:23:54.581Z,49.90
2018-06-18T04:26:59.601Z,49.80
2018-06-18T04:30:03.943Z,50.50
2018-06-18T04:36:12.303Z,49.00
2018-06-18T04:39:16.809Z,49.30
2018-06-18T04:42:25.942Z,49.00
2018-06-18T04:45:35.271Z,49.60
2018-06-18T04:48:44.489Z,49.10
2018-06-18T04:51:48.648Z,48.80
2018-06-18T04:54:52.830Z,48.30
2018-06-18T04:57:57.184Z,48.40
2018-06-18T05:01:11.504Z,47.40
2018-06-18T05:04:15.960Z,47.50
2018-06-18T05:07:20.900Z,47.20
2018-06-18T05:10:27.218Z,46.70
2018-06-18T05:13:31.440Z,46.30
2018-06-18T05:16:35.683Z,46.30
2018-06-18T05:19:39.893Z,45.90
2018-06-18T05:22:44.333Z,45.10
2018-06-18T05:25:52.658Z,45.20
2018-06-18T05:32:00.799Z,45.30
2018-06-18T05:35:05.811Z,45.40
2018-06-18T05:39:16.814Z,45.70
2018-06-18T05:42:21.143Z,45.30
2018-06-18T05:45:25.443Z,44.90
2018-06-18T05:48:29.781Z,44.90
2018-06-18T05:51:34.091Z,45.00
2018-06-18T05:54:38.398Z,44.90
2018-06-18T05:57:42.581Z,44.60
2018-06-18T06:00:46.935Z,43.90
2018-06-18T06:03:51.383Z,44.60
2018-06-18T06:06:55.435Z,44.20
2018-06-18T06:09:59.678Z,44.20
2018-06-18T06:13:03.962Z,44.40
2018-06-18T06:16:08.315Z,44.00
2018-06-18T06:19:12.747Z,43.50
2018-06-18T06:22:17.136Z,43.50
2018-06-18T06:25:21.491Z,42.30
2018-06-18T06:28:25.586Z,42.40
2018-06-18T06:31:29.449Z,41.90
2018-06-18T06:34:33.459Z,41.40
2018-06-18T06:37:37.372Z,40.70
2018-06-18T06:40:41.750Z,40.40
2018-06-18T06:43:46.107Z,40.50
2018-06-18T06:46:50.443Z,39.40
2018-06-18T06:49:54.831Z,38.50
2018-06-18T06:52:59.072Z,36.70
2018-06-18T06:56:03.456Z,34.50
2018-06-18T06:59:07.571Z,33.60
2018-06-18T07:02:11.715Z,30.90
2018-06-18T07:05:16.096Z,30.60
2018-06-18T07:08:20.323Z,30.00
2018-06-18T07:11:24.490Z,28.30
2018-06-18T07:14:28.839Z,27.70
2018-06-18T07:17:33.317Z,27.60
2018-06-18T07:20:37.989Z,26.40
2018-06-18T07:23:42.265Z,25.80
2018-06-18T07:26:46.507Z,26.00
2018-06-18T07:29:51.386Z,24.80
2018-06-18T07:32:55.456Z,25.10
2018-06-18T07:36:00.120Z,24.40
2018-06-18T07:39:06.583Z,25.10
2018-06-18T07:42:10.927Z,25.40
2018-06-18T07:45:15.453Z,25.50
2018-06-18T07:48:19.424Z,25.70
2018-06-18T07:51:23.942Z,26.40
2018-06-18T07:54:28.606Z,27.20
2018-06-18T07:57:32.834Z,28.00
2018-06-18T08:00:37.083Z,28.40
2018-06-18T08:03:41.428Z,28.90
2018-06-18T08:06:45.709Z,29.40
2018-06-18T08:09:49.822Z,29.70
2018-06-18T08:12:54.088Z,29.80
2018-06-18T08:15:58.361Z,30.00
2018-06-18T08:19:02.670Z,29.50
2018-06-18T08:22:07.161Z,29.70
2018-06-18T08:25:11.587Z,29.10
2018-06-18T08:28:15.808Z,29.70
2018-06-18T08:31:20.061Z,29.90
2018-06-18T08:34:24.213Z,29.70
2018-06-18T08:37:28.507Z,29.90
2018-06-18T08:40:33.013Z,30.30
2018-06-18T08:43:37.235Z,31.30
2018-06-18T08:46:41.616Z,30.70
2018-06-18T08:49:51.002Z,30.20
2018-06-18T08:53:00.302Z,30.20
2018-06-18T08:56:09.821Z,30.60
2018-06-18T08:59:18.993Z,31.20
2018-06-18T09:02:31.955Z,29.90
2018-06-18T09:05:41.452Z,31.20
2018-06-18T09:08:50.794Z,31.50
2018-06-18T09:11:55.066Z,31.10
2018-06-18T09:14:59.381Z,30.50
2018-06-18T09:18:03.806Z,29.70
2018-06-18T09:21:08.121Z,28.90
2018-06-18T09:24:12.515Z,28.70
2018-06-18T09:27:16.631Z,28.80
2018-06-18T09:30:20.983Z,29.30
2018-06-18T09:33:25.297Z,29.50
2018-06-18T09:36:29.738Z,29.70
2018-06-18T09:39:34.067Z,28.70
2018-06-18T09:42:38.179Z,28.80
2018-06-18T09:45:42.410Z,29.00
2018-06-18T09:48:51.943Z,28.10
2018-06-18T09:52:01.343Z,28.40
2018-06-18T09:55:10.836Z,28.70
2018-06-18T09:58:20.550Z,29.00
2018-06-18T10:01:31.872Z,28.40
2018-06-18T10:04:36.346Z,28.70
2018-06-18T10:10:44.592Z,29.00
2018-06-18T10:13:48.985Z,28.90
2018-06-18T10:16:53.397Z,28.70
2018-06-18T10:19:57.730Z,28.20
2018-06-18T10:23:02.385Z,28.20
2018-06-18T10:26:06.779Z,27.60
2018-06-18T10:29:11.368Z,27.50
2018-06-18T10:32:20.688Z,27.40
2018-06-18T10:35:30.263Z,28.20
2018-06-18T10:38:39.886Z,27.90
2018-06-18T10:41:49.550Z,28.80
2018-06-18T10:44:54.070Z,28.70
2018-06-18T10:47:58.407Z,28.50
2018-06-18T10:51:02.909Z,28.90
2018-06-18T10:54:07.141Z,29.30
2018-06-18T10:57:11.399Z,28.70
2018-06-18T11:00:19.802Z,29.30
2018-06-18T11:03:24.239Z,29.10
2018-06-18T11:06:33.183Z,28.50
2018-06-18T11:09:37.578Z,28.50
2018-06-18T11:12:41.695Z,29.20
2018-06-18T11:15:46.131Z,28.60
2018-06-18T11:18:55.623Z,29.10
2018-06-18T11:22:05.236Z,28.40
2018-06-18T11:25:14.580Z,28.40
2018-06-18T11:28:19.247Z,28.30
2018-06-18T11:34:27.540Z,28.20
2018-06-18T11:37:31.950Z,27.90
2018-06-18T11:40:36.230Z,28.10
2018-06-18T11:43:40.830Z,28.90
2018-06-18T11:46:45.123Z,28.80
2018-06-18T11:49:49.452Z,29.00
2018-06-18T11:52:54.099Z,29.40
2018-06-18T11:55:58.464Z,28.70
2018-06-18T11:59:07.512Z,28.40
2018-06-18T12:02:17.050Z,28.60
2018-06-18T12:05:26.209Z,28.90
2018-06-18T12:08:35.609Z,28.70
2018-06-18T12:11:40.191Z,28.10
2018-06-18T12:14:44.467Z,28.60
2018-06-18T12:17:48.733Z,28.50
2018-06-18T12:20:52.898Z,28.70
2018-06-18T12:23:57.166Z,28.70
2018-06-18T12:27:01.729Z,29.50
2018-06-18T12:30:06.137Z,29.40
2018-06-18T12:33:10.373Z,29.50
2018-06-18T12:36:14.927Z,29.80
2018-06-18T12:39:19.266Z,29.50
2018-06-18T12:42:23.734Z,29.30
2018-06-18T12:45:33.179Z,28.80
2018-06-18T12:48:42.555Z,28.80
2018-06-18T12:51:51.880Z,28.50
2018-06-18T12:55:01.173Z,28.30
2018-06-18T12:58:05.689Z,28.70
2018-06-18T13:01:11.257Z,29.60
2018-06-18T13:04:15.569Z,28.70
2018-06-18T13:07:20.173Z,29.20
2018-06-18T13:10:24.546Z,29.00
2018-06-18T13:13:28.660Z,28.90
2018-06-18T13:16:32.895Z,29.00
2018-06-18T13:19:37.280Z,28.00
2018-06-18T13:22:41.664Z,27.90
2018-06-18T13:25:45.808Z,27.70
2018-06-18T13:28:50.157Z,28.10
2018-06-18T13:31:54.535Z,28.60
2018-06-18T13:34:58.867Z,28.90
2018-06-18T13:38:08.504Z,28.80
2018-06-18T13:41:18.198Z,28.30
2018-06-18T13:44:27.630Z,28.90
2018-06-18T13:47:37.099Z,29.00
2018-06-18T13:50:41.355Z,28.60
2018-06-18T13:53:45.730Z,28.40
2018-06-18T13:56:50.195Z,29.20
2018-06-18T13:59:54.532Z,29.90
2018-06-18T14:02:58.934Z,28.70
2018-06-18T14:06:03.354Z,28.80
2018-06-18T14:09:08.204Z,28.90
2018-06-18T14:12:12.311Z,28.70
2018-06-18T14:15:16.467Z,28.20
2018-06-18T14:18:20.953Z,27.80
2018-06-18T14:21:25.140Z,27.90
2018-06-18T14:24:29.520Z,28.00
2018-06-18T14:27:33.682Z,28.30
2018-06-18T14:30:42.890Z,28.70
2018-06-18T14:33:52.250Z,29.00
2018-06-18T14:37:01.805Z,29.00
2018-06-18T14:40:12.103Z,30.10
2018-06-18T14:43:16.276Z,29.90
2018-06-18T14:46:21.346Z,29.90
2018-06-18T14:49:25.546Z,29.60
2018-06-18T14:52:30.328Z,29.10
2018-06-18T14:55:34.534Z,29.30
2018-06-18T14:58:38.819Z,29.80
2018-06-18T15:01:42.995Z,29.40
2018-06-18T15:04:47.379Z,29.60
2018-06-18T15:07:51.854Z,29.00
2018-06-18T15:10:56.159Z,29.30
2018-06-18T15:14:00.596Z,29.80
2018-06-18T15:17:04.816Z,29.60
2018-06-18T15:20:09.155Z,30.20
2018-06-18T15:23:13.484Z,30.60
2018-06-18T15:26:18.003Z,30.00
2018-06-18T15:29:22.251Z,30.00
2018-06-18T15:32:26.565Z,30.50
2018-06-18T15:35:30.914Z,31.20
2018-06-18T15:38:35.308Z,30.80
2018-06-18T15:41:39.824Z,30.80
2018-06-18T15:44:44.151Z,30.90
2018-06-18T15:47:48.471Z,30.60
2018-06-18T15:50:52.598Z,29.90
2018-06-18T15:53:56.912Z,30.40
2018-06-18T15:57:01.473Z,29.90
2018-06-18T16:00:05.694Z,30.00
2018-06-18T16:03:10.026Z,29.90
2018-06-18T16:06:14.138Z,29.70
2018-06-18T16:09:18.333Z,29.80
2018-06-18T16:12:22.766Z,29.70
2018-06-18T16:15:27.107Z,29.60
2018-06-18T16:18:31.603Z,29.40
2018-06-18T16:21:35.985Z,29.90
2018-06-18T16:24:40.337Z,30.00
2018-06-18T16:27:44.606Z,30.00
2018-06-18T16:30:49.124Z,30.10
2018-06-18T16:33:53.597Z,30.00
2018-06-18T16:36:57.846Z,30.00
2018-06-18T16:40:03.098Z,30.10
2018-06-18T16:43:07.357Z,30.80
2018-06-18T16:49:15.530Z,30.80
2018-06-18T16:52:19.893Z,31.30
2018-06-18T16:55:24.127Z,31.20
2018-06-18T16:58:28.849Z,31.70
2018-06-18T17:01:33.060Z,31.30
2018-06-18T17:04:37.448Z,31.40
2018-06-18T17:07:41.753Z,31.80
2018-06-18T17:10:45.902Z,31.70
2018-06-18T17:13:50.223Z,32.30
2018-06-18T17:16:54.559Z,31.90
2018-06-18T17:19:58.778Z,31.60
2018-06-18T17:23:03.036Z,31.40
2018-06-18T17:26:07.178Z,31.70
2018-06-18T17:29:11.651Z,31.90
2018-06-18T17:32:16.490Z,32.30
2018-06-18T17:35:21.393Z,32.40
2018-06-18T17:38:25.885Z,32.70
2018-06-18T17:41:30.164Z,32.40
2018-06-18T17:44:35.466Z,33.40
2018-06-18T17:47:39.734Z,34.00
2018-06-18T17:50:44.070Z,34.90
2018-06-18T17:53:48.490Z,34.70
2018-06-18T17:56:52.371Z,33.70
2018-06-18T17:59:56.342Z,33.90
2018-06-18T18:03:00.267Z,34.20
2018-06-18T18:06:04.616Z,34.50
2018-06-18T18:09:10.031Z,34.50
2018-06-18T18:12:14.306Z,34.50
2018-06-18T18:15:19.398Z,34.90
2018-06-18T18:18:23.883Z,35.30
2018-06-18T18:21:28.064Z,35.30
2018-06-18T18:24:32.581Z,35.30
2018-06-18T18:27:37.162Z,35.40
2018-06-18T18:30:41.636Z,35.60
2018-06-18T18:33:46.211Z,36.20
2018-06-18T18:36:50.613Z,36.20
2018-06-18T18:39:55.155Z,36.40
2018-06-18T18:42:59.522Z,36.50
2018-06-18T18:46:04.093Z,36.70
2018-06-18T18:49:08.545Z,36.90
2018-06-18T18:52:12.962Z,37.00
2018-06-18T18:55:38.330Z,37.40
2018-06-18T18:58:59.620Z,37.40
2018-06-18T19:02:03.806Z,37.60
2018-06-18T19:05:08.312Z,37.80
2018-06-18T19:08:14.676Z,38.00
2018-06-18T19:11:19.041Z,38.10
2018-06-18T19:14:23.426Z,38.20
2018-06-18T19:17:27.693Z,39.20
2018-06-18T19:20:35.465Z,38.70
2018-06-18T19:23:40.017Z,38.70
2018-06-18T19:26:44.450Z,39.00
2018-06-18T19:29:49.008Z,39.00
2018-06-18T19:32:56.366Z,39.10
2018-06-18T19:36:00.567Z,39.30
2018-06-18T19:39:06.995Z,39.40
2018-06-18T19:42:11.343Z,40.20
2018-06-18T19:45:17.037Z,39.80
2018-06-18T19:48:23.882Z,39.90
2018-06-18T19:51:28.182Z,39.90
2018-06-18T19:54:34.514Z,39.90
2018-06-18T19:57:39.012Z,40.10
2018-06-18T20:00:48.534Z,40.10
2018-06-18T20:03:53.033Z,40.30
2018-06-18T20:06:57.468Z,40.50
2018-06-18T20:10:02.006Z,40.70
2018-06-18T20:13:06.250Z,41.00
2018-06-18T20:16:10.471Z,41.40
2018-06-18T20:19:14.988Z,41.80
2018-06-18T20:22:19.480Z,42.10
2018-06-18T20:25:29.452Z,42.00
2018-06-18T20:28:33.740Z,42.10
2018-06-18T20:31:37.991Z,41.70
2018-06-18T20:34:43.223Z,41.70
2018-06-18T20:37:47.648Z,42.30
2018-06-18T20:40:52.558Z,42.40
2018-06-18T20:44:08.738Z,42.50
2018-06-18T20:47:13.008Z,42.50
2018-06-18T20:53:22.411Z,42.50
2018-06-18T20:56:26.764Z,42.70
2018-06-18T20:59:31.197Z,43.40
2018-06-18T21:02:35.653Z,43.40
2018-06-18T21:05:46.227Z,43.70
2018-06-18T21:08:50.821Z,44.10
2018-06-18T21:11:55.331Z,43.60
2018-06-18T21:15:00.689Z,43.80
2018-06-18T21:18:05.346Z,44.10
2018-06-18T21:21:09.950Z,44.00
2018-06-18T21:24:14.243Z,44.00
2018-06-18T21:27:18.569Z,43.90
2018-06-18T21:30:22.851Z,44.50
2018-06-18T21:33:27.357Z,44.00
2018-06-18T21:36:31.841Z,44.40
2018-06-18T21:39:36.172Z,44.80
2018-06-18T21:42:40.638Z,44.70
2018-06-18T21:48:48.563Z,44.50
2018-06-18T21:51:52.710Z,44.90
2018-06-18T21:54:57.185Z,45.30
2018-06-18T21:58:01.510Z,45.80
2018-06-18T22:01:05.838Z,46.50
2018-06-18T22:04:10.195Z,46.40
2018-06-18T22:07:14.534Z,46.40
2018-06-18T22:10:19.021Z,46.80
2018-06-18T22:13:23.194Z,47.40
2018-06-18T22:16:27.517Z,47.70
2018-06-18T22:19:31.993Z,47.90
2018-06-18T22:22:36.716Z,48.10
2018-06-18T22:25:41.026Z,48.20
2018-06-18T22:28:45.433Z,48.60
2018-06-18T22:31:49.691Z,49.10
2018-06-18T22:34:53.997Z,49.10
2018-06-18T22:37:58.267Z,49.10
2018-06-18T22:41:02.472Z,49.10
2018-06-18T22:44:07.010Z,49.40
2018-06-18T22:47:11.561Z,49.30
2018-06-18T22:50:16.198Z,49.60
2018-06-18T22:53:20.550Z,50.00
2018-06-18T22:56:24.852Z,50.50
2018-06-18T22:59:29.208Z,50.50
2018-06-18T23:02:33.871Z,50.90
2018-06-18T23:05:38.223Z,51.30
2018-06-18T23:08:42.297Z,51.50
2018-06-18T23:11:46.775Z,51.90
2018-06-18T23:14:51.186Z,52.00
2018-06-18T23:17:55.362Z,52.10
2018-06-18T23:20:59.790Z,52.00
2018-06-18T23:24:04.401Z,52.10
2018-06-18T23:27:08.989Z,52.20
2018-06-18T23:30:13.170Z,52.40
2018-06-18T23:33:17.535Z,52.40
2018-06-18T23:36:21.949Z,52.40
2018-06-18T23:39:26.381Z,52.80
2018-06-18T23:42:30.721Z,53.00
2018-06-18T23:45:34.956Z,52.90
2018-06-18T23:48:39.289Z,52.60
2018-06-18T23:51:43.694Z,53.20
2018-06-18T23:54:47.814Z,53.60
2018-06-18T23:57:52.269Z,53.40
